Airfield :
LOGIN :

Register | Disclaimer

   EN    FR    IT 

 










Legend :    VFR   Marginal VFR   IFR   Intensive IFR   Very Intensive IFR
Visi :
Ceiling :
>= 8 km
>= 3000ft
5 to 8 km
1000 to 3000 ft
1500m to 5 km
500 to 1000 ft
800 to 1500m
200 to 500 ft
< 800m
< 200 ft
Symbols :   Thunderstorms  Fog  Heavy snow  Heavy precipitations  Wind > 20 kt
SIGMETs :     Misc.  Thunderstorms  Icing  Turbulence  Mountain Waves  Volcanic Ashes






- Airport Elevation : 348 ft
- IATA code : STN


EGSS - London Stansted

CURRENT METAR :
  • 051950Z AUTO 23019KT 9999 NCD 09/06 Q1013

EXPIRED METARs :
  • 051920Z AUTO 23015KT 9999 NCD 08/06 Q1013
  • 051850Z AUTO 23016KT 9999 NCD 08/06 Q1013
  • 051820Z AUTO 22019KT 9999 NCD 08/06 Q1013
  • 051750Z AUTO 22019KT 9999 -RA NCD 08/06 Q1013
  • 051720Z AUTO 22017KT 9999 -RA NCD 07/05 Q1014

TAF TAF EGSS
Valid from the 05 at 18:00 until the 07 at 00:00 UTC


051657Z 0518/0624 22014KT 9999 FEW010 SCT014
BECMG 0518/0521 BKN010
TEMPO 0518/0621 23018G28KT
PROB30
TEMPO 0518/0521 8000 -RA BKN009
BECMG 0521/0524 BKN007
TEMPO 0521/0613 6000 RA BKN004
PROB30
TEMPO 0521/0613 3000 RADZ
PROB30
TEMPO 0611/0613 BKN001
BECMG 0613/0615 SCT008
TEMPO 0613/0620 7000 SHRA
PROB30
TEMPO 0615/0619 4000 +SHRA BKN014
ATIS : +44 1279 669 325



MET'MAP, your aeronautical weather chart ! - Copyright ORBIFLY December 2007 - Disclaimer

ORBIFLY MET'MAP TEAM :

Programming & Development : Alexandra Zaïnal
Concept & original design : Baudouin d'Aumeries
Assistance for programming : Marc-Olivier Méhu
Technical & hardware support : Manuel Goepfert

Contact : metmap@orbifly.com




SOURCES & CREDITS :

   NOAA